Bessemer, Michigan
Current Conditions -  °F | °C
As of 11:55 AM on Friday 31 Oct 2014 (Local Time) from KIWD Reporting Station
Overcast Overcast  
Wind Chill: 25°   Ceiling: 2300
Heat Index: 30°   Visibility: 3mi
Dew Point: 27°   Wind: 5mph
Humidity: 86%   Direction: 20°NNE
Pressure: 30.46"   Gusts: NA
Location:  46.48°N, 90.05°W
Report Text: KIWD 311655Z AUTO 02004KT 3SM BKN023 OVC031 M01/M03 A3046 RMK AO1
Loading
Personal Weather Stations






























Interactive Weather Map
Tropical Storm Tracking
New forecast layout! Learn more

10-Day Weather Forecast

Advertisements
Track Severe Weather on mobile